Time;durP1;ratioP1;P1;durP2;ratioP2;P2;SDS_P1;SDS_P2;PMS_P1;PMS_P2;Temp;Humidity;BMP_temperature;BMP_pressure;BME280_temperature;BME280_humidity;BME280_pressure;Samples;Min_cycle;Max_cycle;Signal;HPM_P1;HPM_P2
2022/11/10 00:03:14;;;;;;;29.33;19.38;;;24.20;46.50;;;;;;7710918;22;84629;-63
2022/11/10 00:06:33;;;;;;;25.77;17.88;;;24.20;46.60;;;;;;7710803;22;87077;-62
2022/11/10 00:09:52;;;;;;;28.17;18.80;;;24.20;46.60;;;;;;7711088;22;82908;-61
2022/11/10 00:13:11;;;;;;;28.65;19.40;;;24.20;46.60;;;;;;7713917;22;82702;-64
2022/11/10 00:17:12;;;;;;;32.08;20.05;;;24.20;46.60;;;;;;7713623;22;82632;-62
2022/11/10 00:20:12;;;;;;;26.50;17.52;;;24.20;46.70;;;;;;7711884;22;82948;-64
2022/11/10 00:23:32;;;;;;;29.25;19.75;;;24.20;46.80;;;;;;7712691;22;83706;-65
2022/11/10 00:26:51;;;;;;;29.13;19.08;;;24.20;46.70;;;;;;7713867;22;83439;-65
2022/11/10 00:30:10;;;;;;;29.83;19.20;;;24.20;46.60;;;;;;7713923;22;84341;-64
2022/11/10 00:33:29;;;;;;;25.23;17.20;;;24.20;46.60;;;;;;7710662;22;86238;-64
2022/11/10 00:36:48;;;;;;;26.45;17.98;;;24.20;46.60;;;;;;7713802;22;83099;-63
2022/11/10 00:40:07;;;;;;;26.45;17.73;;;24.20;46.70;;;;;;7711142;22;83397;-64
2022/11/10 00:43:26;;;;;;;25.88;17.77;;;24.20;46.70;;;;;;7711732;22;82984;-65
2022/11/10 00:46:46;;;;;;;24.35;16.70;;;24.20;46.60;;;;;;7710216;22;83100;-65
2022/11/10 00:50:05;;;;;;;26.65;17.88;;;24.20;46.70;;;;;;7709665;22;83949;-65
2022/11/10 00:53:24;;;;;;;28.60;18.20;;;24.20;46.70;;;;;;7711719;22;82988;-65
2022/11/10 00:56:43;;;;;;;28.20;17.77;;;24.20;46.70;;;;;;7711813;22;82774;-65
2022/11/10 01:00:02;;;;;;;28.17;17.67;;;24.20;46.80;;;;;;7712537;22;83452;-65
2022/11/10 01:03:21;;;;;;;26.27;16.35;;;24.20;46.70;;;;;;7711497;22;87170;-64
2022/11/10 01:06:41;;;;;;;25.65;17.88;;;24.20;46.70;;;;;;7710487;22;83790;-64
2022/11/10 01:09:59;;;;;;;25.40;16.42;;;24.20;46.80;;;;;;7710899;22;83632;-63
2022/11/10 01:13:18;;;;;;;22.38;16.08;;;24.20;46.80;;;;;;7710319;22;83187;-64
2022/11/10 01:16:38;;;;;;;26.10;16.73;;;24.20;46.90;;;;;;7712794;22;82884;-63
2022/11/10 01:19:57;;;;;;;23.88;16.00;;;24.20;46.70;;;;;;7714231;22;83056;-63
2022/11/10 01:23:16;;;;;;;24.08;15.35;;;24.10;46.70;;;;;;7712275;22;83875;-64
2022/11/10 01:26:35;;;;;;;24.25;17.08;;;24.10;46.70;;;;;;7713865;22;83568;-62
2022/11/10 01:29:54;;;;;;;24.05;16.33;;;24.10;46.70;;;;;;7708968;22;82957;-62
2022/11/10 01:33:13;;;;;;;22.52;15.55;;;24.20;46.80;;;;;;7707408;22;85045;-61
2022/11/10 01:36:32;;;;;;;23.60;15.85;;;24.10;46.80;;;;;;7710379;22;87576;-61
2022/11/10 01:39:51;;;;;;;21.55;14.93;;;24.10;46.70;;;;;;7710729;22;82704;-62
2022/11/10 01:43:10;;;;;;;23.48;15.80;;;24.10;46.80;;;;;;7711558;22;84798;-63
2022/11/10 01:46:29;;;;;;;19.40;14.18;;;24.10;46.70;;;;;;7711035;22;83222;-63
2022/11/10 01:49:48;;;;;;;23.17;15.25;;;24.10;46.70;;;;;;7710402;22;84660;-63
2022/11/10 01:53:07;;;;;;;19.90;15.05;;;24.10;46.70;;;;;;7710922;22;82813;-63
2022/11/10 01:56:26;;;;;;;20.38;15.32;;;24.10;46.70;;;;;;7712952;22;82962;-63
2022/11/10 01:59:45;;;;;;;22.30;15.68;;;24.10;46.80;;;;;;7712012;22;82879;-63
2022/11/10 02:03:04;;;;;;;21.58;15.13;;;24.10;46.90;;;;;;7706013;22;83227;-62
2022/11/10 02:06:23;;;;;;;24.13;15.40;;;24.10;46.80;;;;;;7710468;22;87250;-60
2022/11/10 02:09:42;;;;;;;20.58;14.73;;;24.00;46.90;;;;;;7711461;22;84895;-60
2022/11/10 02:13:01;;;;;;;20.58;14.52;;;24.00;46.80;;;;;;7712146;22;84462;-60
2022/11/10 02:31:00;;;;;;;20.23;13.40;;;24.10;46.80;;;;;;7704531;22;84360;-61
2022/11/10 02:34:19;;;;;;;18.38;12.95;;;24.10;46.80;;;;;;7710799;22;82631;-60
2022/11/10 02:37:38;;;;;;;19.73;13.50;;;24.10;46.80;;;;;;7712983;22;82921;-61
2022/11/10 02:40:57;;;;;;;18.88;13.52;;;24.00;46.70;;;;;;7712776;22;82485;-60
2022/11/10 02:44:16;;;;;;;19.08;13.55;;;24.00;46.70;;;;;;7712394;22;83170;-61
2022/11/10 02:47:35;;;;;;;16.38;12.45;;;24.00;46.80;;;;;;7711831;22;87790;-60
2022/11/10 02:50:55;;;;;;;19.48;12.98;;;24.10;46.80;;;;;;7709774;22;82764;-60
2022/11/10 02:54:13;;;;;;;17.20;12.43;;;24.00;46.70;;;;;;7712561;22;83028;-60
2022/11/10 02:57:32;;;;;;;17.73;13.30;;;24.00;46.70;;;;;;7711053;22;87188;-60
2022/11/10 03:00:52;;;;;;;17.70;12.82;;;24.00;46.70;;;;;;7709126;22;83029;-61
2022/11/10 03:04:11;;;;;;;18.40;12.65;;;24.10;46.80;;;;;;7712709;22;82531;-61
2022/11/10 03:07:29;;;;;;;15.70;11.73;;;24.00;46.70;;;;;;7710083;22;83436;-60
2022/11/10 03:10:48;;;;;;;17.85;12.75;;;24.00;46.80;;;;;;7711721;22;82984;-60
2022/11/10 03:14:08;;;;;;;16.85;13.07;;;24.00;46.90;;;;;;7712097;22;83746;-59
2022/11/10 03:17:26;;;;;;;18.50;11.95;;;24.00;46.80;;;;;;7711972;22;84471;-59
2022/11/10 03:20:45;;;;;;;17.45;12.60;;;24.00;46.80;;;;;;7710073;22;84223;-60
2022/11/10 03:24:04;;;;;;;19.13;12.55;;;24.00;46.80;;;;;;7709837;22;84269;-60
2022/11/10 03:27:23;;;;;;;16.33;11.48;;;24.00;46.80;;;;;;7712188;22;87230;-60
2022/11/10 03:30:42;;;;;;;18.23;12.30;;;24.00;46.90;;;;;;7710005;22;84352;-59
2022/11/10 03:34:01;;;;;;;16.55;12.32;;;24.00;46.90;;;;;;7710863;22;85023;-55
2022/11/10 03:37:21;;;;;;;16.65;11.23;;;24.00;46.90;;;;;;7711413;22;83239;-51
2022/11/10 03:40:40;;;;;;;16.40;11.25;;;24.00;46.90;;;;;;7708822;22;84786;-51
2022/11/10 03:43:59;;;;;;;16.27;10.90;;;24.00;47.00;;;;;;7712881;22;83092;-53
2022/11/10 03:47:17;;;;;;;15.85;12.02;;;24.00;47.00;;;;;;7714161;22;82745;-50
2022/11/10 03:50:36;;;;;;;16.67;11.95;;;24.00;46.90;;;;;;7711520;22;83064;-53
2022/11/10 03:53:55;;;;;;;15.65;12.07;;;24.00;46.90;;;;;;7712191;22;90010;-61
2022/11/10 03:57:14;;;;;;;17.92;12.30;;;24.00;46.90;;;;;;7714739;22;82605;-62
2022/11/10 04:00:34;;;;;;;18.15;12.20;;;24.00;46.90;;;;;;7713588;22;87816;-60
2022/11/10 04:03:53;;;;;;;14.07;10.65;;;24.00;46.90;;;;;;7709529;22;84141;-61
2022/11/10 04:10:50;;;;;;;15.25;11.23;;;24.00;47.00;;;;;;7711954;22;83035;-61
2022/11/10 04:17:46;;;;;;;17.77;10.38;;;24.00;47.20;;;;;;7710232;22;83893;-64
2022/11/10 04:21:05;;;;;;;14.75;10.70;;;24.00;47.90;;;;;;7709528;22;84452;-62
2022/11/10 04:24:24;;;;;;;14.95;10.45;;;24.00;48.00;;;;;;7709592;22;87260;-60
2022/11/10 04:27:44;;;;;;;17.38;10.55;;;24.10;47.90;;;;;;7711028;22;83969;-61
2022/11/10 04:31:03;;;;;;;17.90;11.23;;;24.10;47.90;;;;;;7711018;22;83065;-55
2022/11/10 04:34:21;;;;;;;15.70;11.18;;;24.10;48.20;;;;;;7710380;22;83988;-52
2022/11/10 04:37:40;;;;;;;16.50;11.65;;;24.20;47.80;;;;;;7710366;22;90250;-51
2022/11/10 04:40:59;;;;;;;17.45;10.73;;;24.20;47.80;;;;;;7709852;22;82630;-53
2022/11/10 04:44:18;;;;;;;13.27;9.25;;;24.30;48.50;;;;;;7711268;22;82896;-53
2022/11/10 04:47:37;;;;;;;18.30;7.90;;;24.20;50.20;;;;;;7715153;22;82623;-52
2022/11/10 04:50:56;;;;;;;10.52;7.38;;;24.10;51.60;;;;;;7716885;22;80278;-55
2022/11/10 04:54:15;;;;;;;10.88;6.93;;;24.00;52.40;;;;;;7717243;22;81220;-56
2022/11/10 04:57:34;;;;;;;11.45;7.20;;;24.00;53.10;;;;;;7709223;22;83399;-54
2022/11/10 05:00:54;;;;;;;10.38;7.22;;;24.00;53.70;;;;;;7713048;22;80088;-60
2022/11/10 05:04:13;;;;;;;8.55;6.45;;;24.00;53.80;;;;;;7713635;22;80843;-66
2022/11/10 05:07:32;;;;;;;9.75;6.78;;;23.90;54.20;;;;;;7715477;22;80808;-57
2022/11/10 05:10:51;;;;;;;9.13;6.20;;;23.90;54.70;;;;;;7687681;22;80617;-55
2022/11/10 05:14:10;;;;;;;12.10;6.22;;;24.00;54.80;;;;;;7713472;22;81406;-56
2022/11/10 05:17:29;;;;;;;7.45;4.90;;;24.00;55.10;;;;;;7713706;22;81287;-57
2022/11/10 05:20:48;;;;;;;8.70;5.00;;;24.00;55.50;;;;;;7714165;22;80192;-65
2022/11/10 05:24:07;;;;;;;7.93;5.20;;;24.00;55.60;;;;;;7712186;22;81234;-57
2022/11/10 05:27:26;;;;;;;7.45;5.90;;;24.00;56.00;;;;;;7710956;22;84770;-53
2022/11/10 05:49:17;;;;;;;9.23;6.50;;;24.00;55.10;;;;;;7698535;22;81331;-56
2022/11/10 05:52:37;;;;;;;10.82;7.00;;;24.10;54.30;;;;;;7678127;22;81902;-55
2022/11/10 05:55:55;;;;;;;13.48;8.00;;;24.10;54.00;;;;;;7666993;22;81396;-57
2022/11/10 05:59:14;;;;;;;10.50;7.95;;;24.10;53.40;;;;;;7673350;22;80324;-55
2022/11/10 06:02:33;;;;;;;10.35;7.75;;;24.10;53.20;;;;;;7662660;22;80566;-54
2022/11/10 06:05:52;;;;;;;14.43;9.10;;;24.10;53.10;;;;;;7672362;22;79982;-55
2022/11/10 06:09:11;;;;;;;14.05;9.43;;;24.10;52.20;;;;;;7675984;22;80089;-55
2022/11/10 06:12:30;;;;;;;15.70;10.27;;;24.20;52.10;;;;;;7674430;22;84539;-56
2022/11/10 06:15:50;;;;;;;17.67;10.60;;;24.20;51.70;;;;;;7669983;22;83882;-57
2022/11/10 06:19:08;;;;;;;17.15;11.48;;;24.20;50.90;;;;;;7670802;22;84106;-54
2022/11/10 06:22:27;;;;;;;15.50;11.45;;;24.20;50.60;;;;;;7673904;22;82676;-57
2022/11/10 06:25:46;;;;;;;16.95;12.18;;;24.20;50.50;;;;;;7671197;22;82544;-55
2022/11/10 06:29:05;;;;;;;17.45;12.60;;;24.20;50.40;;;;;;7670380;22;84654;-59
2022/11/10 06:32:24;;;;;;;19.10;12.35;;;24.20;50.00;;;;;;7648373;22;82584;-54
2022/11/10 06:35:44;;;;;;;21.25;13.07;;;24.20;49.90;;;;;;7664103;22;83114;-56
2022/11/10 06:39:03;;;;;;;18.38;13.20;;;24.20;49.50;;;;;;7668559;22;83767;-60
2022/11/10 06:42:22;;;;;;;18.67;13.43;;;24.20;49.60;;;;;;7669220;22;87135;-60
2022/11/10 06:45:41;;;;;;;20.05;13.32;;;24.20;49.20;;;;;;7673578;22;83651;-61
2022/11/10 06:49:00;;;;;;;18.33;13.05;;;24.20;49.20;;;;;;7672722;22;83699;-60
2022/11/10 06:52:19;;;;;;;21.83;12.88;;;24.20;49.10;;;;;;7709833;22;85442;-60
2022/11/10 06:55:38;;;;;;;20.75;13.68;;;24.10;48.80;;;;;;7709679;22;82883;-60
2022/11/10 06:58:57;;;;;;;20.92;13.82;;;24.20;48.80;;;;;;7713513;22;83269;-63
2022/11/10 07:02:16;;;;;;;21.63;13.88;;;24.10;48.50;;;;;;7710658;22;82917;-63
2022/11/10 07:05:35;;;;;;;19.60;13.40;;;24.10;48.40;;;;;;7712050;22;83016;-61
2022/11/10 07:08:54;;;;;;;22.90;13.60;;;24.10;48.30;;;;;;7710723;22;82651;-62
2022/11/10 07:12:13;;;;;;;18.65;14.10;;;24.10;48.30;;;;;;7711412;22;83045;-62
2022/11/10 07:15:33;;;;;;;18.90;13.77;;;24.10;48.20;;;;;;7709945;22;87113;-61
2022/11/10 07:18:51;;;;;;;23.83;13.77;;;24.10;48.10;;;;;;7708745;22;82642;-61
2022/11/10 07:22:10;;;;;;;20.92;12.90;;;24.10;48.00;;;;;;7712441;22;84377;-61
2022/11/10 07:25:29;;;;;;;21.65;13.95;;;24.10;47.90;;;;;;7707130;22;82633;-62
2022/11/10 07:28:49;;;;;;;23.92;13.00;;;24.10;47.80;;;;;;7705429;22;83698;-59
2022/11/10 07:32:08;;;;;;;20.33;13.90;;;24.10;48.00;;;;;;7708374;22;84873;-60
2022/11/10 07:35:27;;;;;;;24.27;13.98;;;24.10;47.70;;;;;;7713144;22;83024;-63
2022/11/10 07:38:46;;;;;;;25.10;14.52;;;24.10;47.70;;;;;;7713699;22;82540;-60
2022/11/10 07:42:05;;;;;;;22.52;14.52;;;24.10;47.80;;;;;;7711426;22;82625;-61
2022/11/10 07:45:24;;;;;;;28.08;15.57;;;24.10;47.80;;;;;;7687237;22;87574;-62
2022/11/10 07:48:43;;;;;;;23.98;14.75;;;24.00;47.80;;;;;;7709454;22;83813;-63
2022/11/10 07:52:02;;;;;;;25.52;14.57;;;24.10;47.70;;;;;;7710297;22;83163;-63
2022/11/10 07:55:21;;;;;;;19.23;13.98;;;24.00;47.80;;;;;;7711476;22;82609;-64
2022/11/10 07:58:40;;;;;;;24.38;15.43;;;24.10;47.80;;;;;;7709634;22;83148;-62
2022/11/10 08:01:59;;;;;;;23.33;15.05;;;24.10;47.70;;;;;;7708600;22;83024;-60
2022/11/10 08:05:18;;;;;;;22.63;14.48;;;24.00;47.70;;;;;;7711355;22;83521;-60
2022/11/10 08:08:37;;;;;;;23.33;15.60;;;24.10;47.50;;;;;;7711362;22;83001;-60
2022/11/10 08:11:56;;;;;;;27.83;15.13;;;24.10;47.60;;;;;;7711744;22;83180;-60
2022/11/10 08:15:15;;;;;;;25.80;13.88;;;24.10;47.50;;;;;;7712286;22;83870;-60
2022/11/10 08:18:34;;;;;;;22.50;14.55;;;24.10;47.50;;;;;;7710047;22;86179;-61
2022/11/10 08:21:53;;;;;;;22.00;14.05;;;24.00;47.30;;;;;;7712327;22;82940;-60
2022/11/10 08:25:12;;;;;;;22.33;13.00;;;24.00;47.30;;;;;;7712818;22;83568;-60
2022/11/10 08:28:31;;;;;;;21.88;13.95;;;24.10;47.90;;;;;;7714239;22;82747;-59
2022/11/10 08:31:51;;;;;;;20.27;13.48;;;24.10;47.90;;;;;;7709452;22;82995;-59
2022/11/10 08:35:11;;;;;;;19.98;13.57;;;24.10;48.30;;;;;;7707442;22;85195;-59
2022/11/10 08:38:30;;;;;;;197.23;85.80;;;24.10;48.40;;;;;;7715571;22;83781;-60
2022/11/10 08:41:49;;;;;;;327.77;144.95;;;24.10;48.70;;;;;;7716560;22;82938;-60
2022/11/10 08:45:08;;;;;;;428.25;178.30;;;24.10;49.00;;;;;;7711049;22;85575;-60
2022/11/10 08:48:27;;;;;;;580.15;273.83;;;24.10;49.40;;;;;;7707567;22;89411;-54
2022/11/10 08:51:46;;;;;;;544.97;254.02;;;24.20;49.90;;;;;;7699836;22;85789;-57
2022/11/10 08:55:05;;;;;;;469.45;199.02;;;24.20;50.30;;;;;;7703691;22;85388;-57
2022/11/10 08:58:24;;;;;;;402.83;172.95;;;24.20;50.60;;;;;;7691195;22;85834;-56
2022/11/10 09:01:43;;;;;;;351.10;148.40;;;24.20;51.00;;;;;;7705236;22;86592;-57
2022/11/10 09:05:02;;;;;;;325.30;139.70;;;24.30;51.40;;;;;;7698583;22;85509;-60
2022/11/10 09:08:21;;;;;;;290.70;127.22;;;24.30;52.10;;;;;;7703734;22;85002;-59
2022/11/10 09:11:40;;;;;;;256.77;117.32;;;24.30;52.20;;;;;;7702898;22;85014;-60
2022/11/10 09:14:59;;;;;;;227.77;105.50;;;24.30;52.10;;;;;;7704219;22;86286;-61
2022/11/10 09:18:18;;;;;;;228.82;97.07;;;24.30;51.80;;;;;;7698441;22;88535;-60
2022/11/10 09:21:38;;;;;;;204.48;91.03;;;24.30;51.70;;;;;;7706816;22;84977;-60
2022/11/10 09:24:57;;;;;;;183.43;83.68;;;24.30;51.60;;;;;;7706825;22;84066;-54
2022/11/10 09:28:16;;;;;;;162.65;75.88;;;24.30;51.50;;;;;;7708549;22;83358;-55
2022/11/10 09:31:35;;;;;;;151.20;70.53;;;24.30;51.30;;;;;;7713713;22;83095;-54
2022/11/10 09:34:54;;;;;;;149.88;67.38;;;24.30;51.50;;;;;;7713395;22;82916;-56
2022/11/10 09:38:13;;;;;;;126.88;62.92;;;24.30;51.70;;;;;;7715030;22;83970;-55
2022/11/10 09:41:32;;;;;;;127.10;60.75;;;24.30;50.90;;;;;;7704353;22;83398;-57
2022/11/10 09:44:51;;;;;;;116.93;54.78;;;24.30;51.00;;;;;;7713804;22;82880;-56
2022/11/10 09:48:10;;;;;;;106.72;50.17;;;24.30;50.60;;;;;;7710907;22;84300;-54
2022/11/10 09:51:29;;;;;;;108.88;47.17;;;24.30;50.70;;;;;;7711964;22;86067;-55
2022/11/10 09:54:49;;;;;;;100.00;45.55;;;24.20;50.50;;;;;;7708113;22;83117;-56
2022/11/10 09:58:07;;;;;;;95.10;43.63;;;24.20;50.30;;;;;;7709905;22;82892;-56
2022/11/10 10:01:26;;;;;;;82.68;39.80;;;24.20;50.20;;;;;;7708236;22;82755;-56
2022/11/10 10:04:45;;;;;;;78.93;38.88;;;24.10;49.90;;;;;;7709473;22;83084;-56
2022/11/10 10:08:04;;;;;;;71.28;36.92;;;24.10;49.80;;;;;;7709114;22;82954;-57
2022/11/10 10:11:23;;;;;;;69.90;36.35;;;24.10;49.60;;;;;;7707638;22;83525;-56
2022/11/10 10:14:43;;;;;;;66.50;35.35;;;24.10;49.50;;;;;;7707832;22;84639;-55
2022/11/10 10:18:01;;;;;;;68.15;33.45;;;24.10;49.40;;;;;;7709641;22;83278;-56
2022/11/10 10:21:20;;;;;;;59.33;30.77;;;24.00;49.30;;;;;;7713579;22;87161;-58
2022/11/10 10:24:40;;;;;;;57.55;30.60;;;24.00;49.30;;;;;;7713192;22;83109;-58
2022/11/10 10:27:59;;;;;;;53.25;29.35;;;24.00;49.10;;;;;;7715916;22;83428;-59
2022/11/10 10:31:18;;;;;;;51.28;27.55;;;24.00;49.00;;;;;;7714451;22;84500;-58
2022/11/10 10:34:37;;;;;;;52.05;27.70;;;24.00;49.00;;;;;;7713785;22;82942;-58
2022/11/10 10:37:55;;;;;;;44.67;24.85;;;24.00;48.90;;;;;;7713596;22;82843;-58
2022/11/10 10:41:14;;;;;;;46.15;25.92;;;24.00;48.90;;;;;;7714672;22;82701;-59
2022/11/10 10:44:33;;;;;;;42.80;24.27;;;24.00;48.90;;;;;;7713108;22;82648;-58
2022/11/10 10:47:52;;;;;;;37.63;21.65;;;23.90;48.80;;;;;;7713786;22;82751;-58
2022/11/10 10:51:11;;;;;;;43.83;22.90;;;23.90;48.80;;;;;;7710390;22;83955;-59
2022/11/10 10:54:30;;;;;;;42.88;22.90;;;23.90;48.70;;;;;;7712315;22;87186;-58
2022/11/10 10:57:50;;;;;;;40.03;22.27;;;23.90;48.80;;;;;;7715278;22;83021;-58
2022/11/10 11:01:09;;;;;;;37.50;21.25;;;23.90;48.70;;;;;;7712937;22;83293;-60
2022/11/10 11:04:28;;;;;;;37.47;20.90;;;23.90;48.70;;;;;;7712555;22;83225;-59
2022/11/10 11:07:47;;;;;;;36.08;20.75;;;23.90;48.70;;;;;;7716593;22;83212;-58
2022/11/10 11:11:06;;;;;;;36.85;20.63;;;23.90;48.70;;;;;;7713250;22;84570;-59
2022/11/10 11:14:25;;;;;;;34.38;20.13;;;23.90;48.60;;;;;;7711500;22;84393;-59
2022/11/10 11:17:44;;;;;;;29.10;18.27;;;23.90;48.70;;;;;;7714432;22;83099;-59
2022/11/10 11:21:03;;;;;;;30.65;19.27;;;23.90;48.70;;;;;;7712822;22;84614;-64
2022/11/10 11:24:22;;;;;;;32.30;18.20;;;23.90;48.60;;;;;;7714391;22;87501;-63
2022/11/10 11:27:41;;;;;;;32.65;18.27;;;23.90;48.60;;;;;;7714149;22;84284;-58
2022/11/10 11:31:00;;;;;;;29.17;17.75;;;23.90;48.70;;;;;;7710188;22;82574;-59
2022/11/10 11:34:19;;;;;;;27.15;17.65;;;23.90;48.80;;;;;;7705872;22;83108;-59
2022/11/10 11:37:38;;;;;;;26.52;17.25;;;24.00;48.80;;;;;;7693184;22;83052;-59
2022/11/10 11:40:57;;;;;;;31.63;17.15;;;24.00;48.80;;;;;;7712012;22;82870;-59
2022/11/10 11:44:16;;;;;;;25.88;16.67;;;24.00;48.80;;;;;;7708655;22;82989;-59
2022/11/10 11:50:42;;;;;;;27.77;16.45;;;23.90;48.90;;;;;;7712040;22;82562;-55
2022/11/10 11:54:01;;;;;;;29.75;15.88;;;24.00;49.10;;;;;;7714739;22;84060;-56
2022/11/10 11:57:20;;;;;;;23.08;14.63;;;24.00;49.50;;;;;;7702827;22;87190;-56
2022/11/10 12:00:39;;;;;;;29.23;16.10;;;24.00;50.00;;;;;;7716429;22;84010;-57
2022/11/10 12:03:58;;;;;;;26.50;15.02;;;24.00;50.40;;;;;;7713212;22;83042;-57
2022/11/10 12:07:17;;;;;;;27.10;15.88;;;24.00;51.40;;;;;;7712058;22;83539;-57
2022/11/10 12:10:36;;;;;;;26.42;14.93;;;24.00;52.10;;;;;;7713628;22;82635;-55
2022/11/10 12:13:55;;;;;;;22.15;14.40;;;24.10;53.10;;;;;;7712807;22;83022;-56
2022/11/10 12:17:15;;;;;;;23.40;15.80;;;24.10;54.00;;;;;;7711069;22;82814;-57
2022/11/10 12:20:34;;;;;;;26.38;15.25;;;24.10;57.10;;;;;;7713466;22;82659;-58
2022/11/10 12:23:53;;;;;;;21.98;14.15;;;24.10;55.80;;;;;;7713093;22;82972;-56
2022/11/10 12:27:12;;;;;;;24.23;14.68;;;24.10;55.80;;;;;;7711699;22;84602;-57
2022/11/10 12:30:31;;;;;;;26.60;14.10;;;24.20;58.20;;;;;;7696363;22;86855;-57
2022/11/10 12:33:50;;;;;;;31.20;14.65;;;24.20;58.00;;;;;;7687667;22;83218;-56
2022/11/10 12:37:09;;;;;;;26.98;14.77;;;24.20;57.20;;;;;;7713742;22;83316;-57
2022/11/10 12:40:28;;;;;;;21.13;13.15;;;24.20;56.80;;;;;;7712064;22;83627;-58
2022/11/10 12:43:47;;;;;;;25.33;15.05;;;24.20;56.50;;;;;;7711443;22;82761;-57
2022/11/10 12:47:06;;;;;;;23.38;13.20;;;24.20;56.10;;;;;;7705669;22;83606;-57
2022/11/10 12:50:25;;;;;;;21.95;12.73;;;24.20;55.60;;;;;;7706496;22;83022;-55
2022/11/10 12:53:44;;;;;;;20.70;13.32;;;24.20;55.40;;;;;;7706319;22;83523;-57
2022/11/10 12:57:03;;;;;;;20.27;13.35;;;24.20;55.20;;;;;;7703812;22;83169;-56
2022/11/10 13:00:23;;;;;;;22.63;12.95;;;24.20;54.80;;;;;;7706609;22;87339;-56
2022/11/10 13:03:42;;;;;;;40.05;12.65;;;24.20;54.40;;;;;;7708249;22;84782;-56
2022/11/10 13:07:01;;;;;;;20.98;12.43;;;24.20;54.00;;;;;;7709502;22;82963;-57
2022/11/10 13:10:20;;;;;;;17.85;12.07;;;24.20;54.00;;;;;;7705735;22;83041;-58
2022/11/10 13:13:39;;;;;;;20.33;12.77;;;24.20;54.00;;;;;;7708227;22;83767;-59
2022/11/10 13:16:58;;;;;;;21.48;12.18;;;24.20;53.60;;;;;;7707384;22;82668;-56
2022/11/10 13:20:18;;;;;;;20.65;11.98;;;24.20;53.60;;;;;;7708512;22;82862;-56
2022/11/10 13:23:37;;;;;;;17.67;11.57;;;24.20;53.30;;;;;;7708697;22;83344;-57
2022/11/10 13:26:55;;;;;;;17.17;12.00;;;24.20;53.10;;;;;;7708353;22;83261;-57
2022/11/10 13:30:14;;;;;;;18.80;12.60;;;24.20;52.90;;;;;;7705822;22;82992;-58
2022/11/10 13:33:33;;;;;;;20.27;12.38;;;24.20;52.90;;;;;;7706679;22;87753;-58
2022/11/10 13:36:53;;;;;;;18.70;12.23;;;24.20;52.70;;;;;;7707766;22;83243;-57
2022/11/10 13:40:12;;;;;;;19.23;12.15;;;24.20;52.60;;;;;;7708508;22;83990;-59
2022/11/10 13:43:31;;;;;;;17.60;11.75;;;24.20;52.50;;;;;;7714483;22;82970;-59
2022/11/10 13:46:50;;;;;;;20.10;11.93;;;24.20;52.70;;;;;;7710580;22;82671;-57
2022/11/10 13:50:09;;;;;;;16.88;10.50;;;24.20;52.80;;;;;;7711682;22;82684;-58
2022/11/10 13:53:28;;;;;;;21.23;12.38;;;24.20;52.60;;;;;;7712555;22;82680;-58
2022/11/10 13:56:47;;;;;;;21.75;12.57;;;24.20;52.50;;;;;;7713920;22;83342;-57
2022/11/10 14:00:06;;;;;;;22.80;12.90;;;24.20;52.20;;;;;;7710430;22;84218;-64
2022/11/10 14:03:25;;;;;;;19.98;12.05;;;24.30;51.80;;;;;;7709784;22;87268;-65
2022/11/10 14:06:44;;;;;;;25.98;16.90;;;24.40;51.60;;;;;;7715089;22;82941;-64
2022/11/10 14:10:03;;;;;;;53.55;29.10;;;24.50;51.40;;;;;;7714028;22;83704;-64
2022/11/10 14:13:22;;;;;;;134.48;69.10;;;24.70;51.00;;;;;;7714551;22;82837;-64
2022/11/10 14:16:42;;;;;;;179.38;93.47;;;24.90;50.50;;;;;;7714492;22;83172;-66
2022/11/10 14:20:01;;;;;;;206.93;106.65;;;25.10;50.20;;;;;;7714462;22;83891;-65
2022/11/10 14:23:20;;;;;;;255.65;124.03;;;25.10;50.10;;;;;;7703663;22;85757;-68
2022/11/10 14:26:39;;;;;;;209.10;106.68;;;25.10;50.10;;;;;;7709328;22;85350;-67
2022/11/10 14:29:58;;;;;;;171.40;87.80;;;25.00;50.20;;;;;;7708514;22;85744;-65
2022/11/10 14:33:17;;;;;;;198.13;104.38;;;24.90;50.30;;;;;;7715052;22;89603;-65
2022/11/10 14:36:36;;;;;;;260.35;129.00;;;24.80;50.60;;;;;;7710694;22;85288;-55
2022/11/10 14:39:55;;;;;;;277.95;132.23;;;24.70;50.70;;;;;;7709533;22;85523;-56
2022/11/10 14:43:14;;;;;;;339.30;171.60;;;24.70;50.90;;;;;;7710913;22;86092;-56
2022/11/10 14:46:33;;;;;;;308.90;152.07;;;24.60;50.90;;;;;;7709253;22;86054;-56
2022/11/10 16:40:14;;;;;;;44.97;23.48;;;24.10;50.20;;;;;;7678129;22;85892;-64
2022/11/10 16:43:33;;;;;;;55.35;23.75;;;24.10;50.30;;;;;;7674969;22;84364;-63
2022/11/10 16:46:53;;;;;;;38.00;21.85;;;24.10;50.50;;;;;;7674905;22;83459;-65
2022/11/10 16:50:12;;;;;;;38.97;22.27;;;24.10;50.80;;;;;;7675814;22;83526;-65
2022/11/10 16:53:31;;;;;;;38.13;20.65;;;24.10;50.60;;;;;;7674450;22;89497;-64
2022/11/10 16:56:50;;;;;;;37.28;19.60;;;24.10;50.40;;;;;;7674118;22;82966;-64
2022/11/10 17:00:09;;;;;;;32.47;19.42;;;24.20;50.40;;;;;;7669540;22;82887;-65
2022/11/10 17:03:28;;;;;;;34.40;18.60;;;24.10;50.20;;;;;;7667805;22;86960;-65
2022/11/10 17:06:47;;;;;;;32.88;18.25;;;24.10;50.00;;;;;;7669672;22;82926;-64
2022/11/10 17:10:06;;;;;;;32.63;18.10;;;24.10;50.00;;;;;;7667969;22;83318;-65
2022/11/10 17:13:25;;;;;;;30.85;16.00;;;24.10;50.00;;;;;;7678317;22;83138;-63
2022/11/10 17:16:44;;;;;;;26.75;15.80;;;24.10;49.90;;;;;;7674924;22;83103;-62
2022/11/10 17:20:03;;;;;;;27.13;15.68;;;24.10;49.90;;;;;;7668314;22;84441;-65
2022/11/10 17:23:22;;;;;;;31.05;15.68;;;24.10;49.80;;;;;;7666356;22;82868;-55
2022/11/10 17:26:41;;;;;;;25.50;15.55;;;24.10;49.70;;;;;;7668276;22;83550;-55
2022/11/10 17:30:00;;;;;;;26.95;15.10;;;24.10;49.80;;;;;;7675285;22;82883;-57
2022/11/10 17:33:19;;;;;;;25.65;15.00;;;24.10;49.70;;;;;;7667248;22;85892;-57
2022/11/10 17:36:38;;;;;;;34.15;15.40;;;24.10;49.70;;;;;;7670307;22;83149;-57
2022/11/10 17:39:58;;;;;;;28.88;14.48;;;24.10;49.60;;;;;;7670159;22;83498;-61
2022/11/10 17:43:17;;;;;;;27.98;15.05;;;24.10;49.50;;;;;;7676006;22;83251;-63
2022/11/10 17:46:36;;;;;;;26.15;13.30;;;24.10;49.50;;;;;;7673738;22;83725;-63
2022/11/10 17:49:55;;;;;;;25.55;15.15;;;24.10;49.50;;;;;;7669815;22;82812;-61
2022/11/10 17:53:14;;;;;;;24.27;14.32;;;24.10;49.50;;;;;;7669936;22;83116;-61
2022/11/10 17:56:33;;;;;;;22.38;13.32;;;24.00;49.20;;;;;;7673229;22;83711;-61
2022/11/10 17:59:51;;;;;;;24.73;14.65;;;24.00;49.30;;;;;;7663752;22;84186;-62
2022/11/10 18:03:10;;;;;;;19.42;12.35;;;24.00;49.30;;;;;;7660950;22;83018;-63
2022/11/10 18:06:30;;;;;;;25.55;13.32;;;23.90;49.10;;;;;;7666234;22;87381;-62
2022/11/10 18:09:49;;;;;;;21.10;12.60;;;23.90;49.00;;;;;;7665543;22;84306;-63
2022/11/10 18:13:08;;;;;;;19.10;11.43;;;23.90;49.00;;;;;;7668281;22;82983;-63
2022/11/10 18:16:27;;;;;;;23.92;13.32;;;23.90;49.00;;;;;;7667965;22;83499;-61
2022/11/10 18:19:46;;;;;;;18.40;11.85;;;23.90;48.90;;;;;;7665678;22;83054;-64
2022/11/10 18:23:07;;;;;;;21.15;12.20;;;23.90;48.90;;;;;;7676301;22;82875;-64
2022/11/10 18:26:25;;;;;;;20.85;12.23;;;23.90;48.90;;;;;;7679990;22;82593;-63
2022/11/10 18:29:45;;;;;;;21.52;12.60;;;23.90;48.80;;;;;;7676101;22;84336;-63
2022/11/10 18:33:04;;;;;;;20.65;13.07;;;23.90;48.80;;;;;;7673784;22;83659;-64
2022/11/10 18:36:23;;;;;;;21.02;12.98;;;23.90;48.70;;;;;;7671471;22;87183;-63
2022/11/10 18:39:42;;;;;;;21.85;13.25;;;23.90;49.00;;;;;;7677205;22;83017;-61
2022/11/10 18:43:01;;;;;;;22.77;13.20;;;23.90;48.60;;;;;;7700334;22;84172;-63
2022/11/10 18:46:20;;;;;;;21.90;13.77;;;23.90;48.60;;;;;;7695667;22;83373;-63
2022/11/10 18:49:39;;;;;;;19.50;12.40;;;23.90;48.70;;;;;;7696608;22;83394;-63
2022/11/10 18:52:57;;;;;;;20.33;12.68;;;23.90;48.80;;;;;;7691013;22;83567;-66
2022/11/10 18:56:17;;;;;;;21.67;13.07;;;23.90;48.90;;;;;;7692633;22;84792;-65
2022/11/10 18:59:36;;;;;;;27.88;13.75;;;23.90;48.90;;;;;;7681048;22;84525;-66
2022/11/10 19:02:54;;;;;;;23.90;13.95;;;23.90;48.90;;;;;;7692128;22;83136;-65
2022/11/10 19:06:13;;;;;;;21.95;13.02;;;23.90;48.80;;;;;;7694241;22;83692;-66
2022/11/10 19:09:32;;;;;;;22.35;13.15;;;23.90;48.80;;;;;;7693899;22;87266;-65
2022/11/10 19:12:52;;;;;;;21.70;13.30;;;23.90;48.80;;;;;;7689804;22;84221;-66
2022/11/10 19:16:11;;;;;;;23.65;14.73;;;23.90;48.80;;;;;;7693507;22;89189;-68
2022/11/10 19:19:31;;;;;;;26.98;13.70;;;23.90;48.80;;;;;;7695386;22;86874;-67
2022/11/10 19:22:50;;;;;;;23.52;14.98;;;23.90;48.70;;;;;;7694487;22;83783;-68